Rhonda Lamulle — WDC8441 — position and weather

sailwx.info

Track history (hours):
 
Tides and Currents Weather Stations Pressure Air Temp Water Temp Dewpoint Dewpoint Depression Visibility Wind Speed Wind Dir Waves Ship Positions

Rhonda Lamulle

Owner: Florida Marine, LLC, Mandeville, LA. More information available from US FCC via Universal Licensing System and Coast Guard Vessel Documentation Center.

Last reported at 2017-Aug-16 02:56 UTC. Time now 2017-Aug-16 21:39 UTC.
Position N 30°24' W 086°54'.

Length 13 m; draft 3 m.

Type: Towing. MMSI: 367087104.

Date/timePositionNaut miles runAvg speedWind from/ knotsBaromVisibWave heightAir tempDewpointWater temp
2017-Aug-16 02:56N 30°24' W 086°54'2 5.2
2017-Aug-16 02:30N 30°24' W 086°52'3 5.4
2017-Aug-16 02:00N 30°24' W 086°48'3 5.8
2017-Aug-16 01:27N 30°24' W 086°45'8 5.4
2017-Aug-16 00:03N 30°24' W 086°36'0 3.7
2017-Aug-15 23:55N 30°24' W 086°35'4 5.6
2017-Aug-15 23:09N 30°25' W 086°31'1 5.9
2017-Aug-15 23:00N 30°26' W 086°30'3 5.5
2017-Aug-15 22:30N 30°28' W 086°28'1 2.1
2017-Aug-15 22:00N 30°29' W 086°29'0 0.6
2017-Aug-15 21:30N 30°29' W 086°29'0 0.0
2017-Aug-15 21:00N 30°29' W 086°29'0 0.0
2017-Aug-15 20:30N 30°29' W 086°29'0 0.0
2017-Aug-15 20:00N 30°29' W 086°29'0 0.0
2017-Aug-15 19:30N 30°29' W 086°29'0 0.0
2017-Aug-15 19:00N 30°29' W 086°29'0 0.0
2017-Aug-15 18:30N 30°29' W 086°29'0 0.0
2017-Aug-15 18:00N 30°29' W 086°29'0 0.0
2017-Aug-15 17:30N 30°29' W 086°29'0 0.0
2017-Aug-15 17:00N 30°29' W 086°29'0 0.0
2017-Aug-15 16:30N 30°29' W 086°29'0 0.0
2017-Aug-15 16:00N 30°29' W 086°29'0 0.0
2017-Aug-15 15:30N 30°29' W 086°29'0 0.0
2017-Aug-15 15:00N 30°29' W 086°29'0 0.0
2017-Aug-15 14:30N 30°29' W 086°29'0 0.0
2017-Aug-15 14:00N 30°29' W 086°29'0 0.0
2017-Aug-15 13:30N 30°29' W 086°29'0 0.0
2017-Aug-15 13:00N 30°29' W 086°29'0 0.0
2017-Aug-15 12:30N 30°29' W 086°29'0 0.0
2017-Aug-15 12:00N 30°29' W 086°29'0 0.0
2017-Aug-15 11:30N 30°29' W 086°29'0 0.0
2017-Aug-15 11:00N 30°29' W 086°29'0 0.0
2017-Aug-15 10:30N 30°29' W 086°29'0 0.0
2017-Aug-15 10:00N 30°29' W 086°29'0 0.0
2017-Aug-15 09:30N 30°29' W 086°29'0 0.1
2017-Aug-15 09:00N 30°29' W 086°29'1 1.2
2017-Aug-15 08:30N 30°29' W 086°29'2 4.9
2017-Aug-15 08:00N 30°27' W 086°27'3 6.2
2017-Aug-15 07:30N 30°26' W 086°24'3 6.4
2017-Aug-15 07:00N 30°26' W 086°20'3 6.2
2017-Aug-15 06:30N 30°26' W 086°16'  
2017-Aug-12 03:19N 30°26' W 086°16'2 6.0
2017-Aug-12 03:00N 30°26' W 086°18'3 6.0
2017-Aug-12 02:30N 30°26' W 086°21'3 6.1
2017-Aug-12 02:00N 30°26' W 086°25'3 6.1
2017-Aug-12 01:30N 30°26' W 086°28'3 5.7
2017-Aug-12 01:00N 30°25' W 086°31'11 5.1
2017-Aug-11 22:49N 30°24' W 086°44'2 5.5
2017-Aug-11 22:29N 30°24' W 086°46'3 5.8
2017-Aug-11 21:57N 30°24' W 086°50'  
Track history (hours):
 
Tides and Currents Weather Stations Pressure Air Temp Water Temp Dewpoint Dewpoint Depression Visibility Wind Speed Wind Dir Waves Ship Positions

Rhonda Lamulle

Owner: Florida Marine, LLC, Mandeville, LA. More information available from US FCC via Universal Licensing System and Coast Guard Vessel Documentation Center.

Last reported at 2017-Aug-16 02:56 UTC. Time now 2017-Aug-16 21:39 UTC.
Position N 30°24' W 086°54'.

Length 13 m; draft 3 m.

Type: Towing. MMSI: 367087104.

Date/timePositionNaut miles runAvg speedWind from/ knotsBaromVisibWave heightAir tempDewpointWater temp
2017-Aug-16 02:56N 30°24' W 086°54'2 5.2
2017-Aug-16 02:30N 30°24' W 086°52'3 5.4
2017-Aug-16 02:00N 30°24' W 086°48'3 5.8
2017-Aug-16 01:27N 30°24' W 086°45'8 5.4
2017-Aug-16 00:03N 30°24' W 086°36'0 3.7
2017-Aug-15 23:55N 30°24' W 086°35'4 5.6
2017-Aug-15 23:09N 30°25' W 086°31'1 5.9
2017-Aug-15 23:00N 30°26' W 086°30'3 5.5
2017-Aug-15 22:30N 30°28' W 086°28'1 2.1
2017-Aug-15 22:00N 30°29' W 086°29'0 0.6
2017-Aug-15 21:30N 30°29' W 086°29'0 0.0
2017-Aug-15 21:00N 30°29' W 086°29'0 0.0
2017-Aug-15 20:30N 30°29' W 086°29'0 0.0
2017-Aug-15 20:00N 30°29' W 086°29'0 0.0
2017-Aug-15 19:30N 30°29' W 086°29'0 0.0
2017-Aug-15 19:00N 30°29' W 086°29'0 0.0
2017-Aug-15 18:30N 30°29' W 086°29'0 0.0
2017-Aug-15 18:00N 30°29' W 086°29'0 0.0
2017-Aug-15 17:30N 30°29' W 086°29'0 0.0
2017-Aug-15 17:00N 30°29' W 086°29'0 0.0
2017-Aug-15 16:30N 30°29' W 086°29'0 0.0
2017-Aug-15 16:00N 30°29' W 086°29'0 0.0
2017-Aug-15 15:30N 30°29' W 086°29'0 0.0
2017-Aug-15 15:00N 30°29' W 086°29'0 0.0
2017-Aug-15 14:30N 30°29' W 086°29'0 0.0
2017-Aug-15 14:00N 30°29' W 086°29'0 0.0
2017-Aug-15 13:30N 30°29' W 086°29'0 0.0
2017-Aug-15 13:00N 30°29' W 086°29'0 0.0
2017-Aug-15 12:30N 30°29' W 086°29'0 0.0
2017-Aug-15 12:00N 30°29' W 086°29'0 0.0
2017-Aug-15 11:30N 30°29' W 086°29'0 0.0
2017-Aug-15 11:00N 30°29' W 086°29'0 0.0
2017-Aug-15 10:30N 30°29' W 086°29'0 0.0
2017-Aug-15 10:00N 30°29' W 086°29'0 0.0
2017-Aug-15 09:30N 30°29' W 086°29'0 0.1
2017-Aug-15 09:00N 30°29' W 086°29'1 1.2
2017-Aug-15 08:30N 30°29' W 086°29'2 4.9
2017-Aug-15 08:00N 30°27' W 086°27'3 6.2
2017-Aug-15 07:30N 30°26' W 086°24'3 6.4
2017-Aug-15 07:00N 30°26' W 086°20'3 6.2
2017-Aug-15 06:30N 30°26' W 086°16'  
2017-Aug-12 03:19N 30°26' W 086°16'2 6.0
2017-Aug-12 03:00N 30°26' W 086°18'3 6.0
2017-Aug-12 02:30N 30°26' W 086°21'3 6.1
2017-Aug-12 02:00N 30°26' W 086°25'3 6.1
2017-Aug-12 01:30N 30°26' W 086°28'3 5.7
2017-Aug-12 01:00N 30°25' W 086°31'11 5.1
2017-Aug-11 22:49N 30°24' W 086°44'2 5.5
2017-Aug-11 22:29N 30°24' W 086°46'3 5.8
2017-Aug-11 21:57N 30°24' W 086°50'  

Dump ship's entire track history